Time;durP1;ratioP1;P1;durP2;ratioP2;P2;SDS_P1;SDS_P2;PMS_P1;PMS_P2;Temp;Humidity;BMP_temperature;BMP_pressure;BME280_temperature;BME280_humidity;BME280_pressure;Samples;Min_cycle;Max_cycle;Signal;HPM_P1;HPM_P2
2022/11/29 00:00:52;;;;;;;21.17;12.32;;;;;;;5.85;88.33;101027.69;5037536;28;19967;-75
2022/11/29 00:03:18;;;;;;;10.73;7.93;;;;;;;5.72;88.49;100978.63;5034434;28;20064;-74
2022/11/29 00:05:43;;;;;;;15.40;10.10;;;;;;;6.02;88.46;101054.38;5036543;28;20037;-75
2022/11/29 00:08:08;;;;;;;12.25;8.55;;;;;;;6.12;89.13;101060.88;5039178;28;20391;-74
2022/11/29 00:10:37;;;;;;;13.15;9.43;;;;;;;6.14;89.21;101051.00;5036782;28;20435;-75
2022/11/29 00:13:03;;;;;;;11.95;8.27;;;;;;;6.19;89.40;101059.59;5036451;28;20049;-75
2022/11/29 00:15:29;;;;;;;10.48;7.78;;;;;;;6.21;89.21;101057.69;5036808;28;20029;-76
2022/11/29 00:17:54;;;;;;;14.95;7.70;;;;;;;6.08;89.17;101024.66;5036349;28;20532;-75
2022/11/29 00:20:20;;;;;;;12.38;8.65;;;;;;;6.30;89.28;101062.53;5036068;28;20022;-75
2022/11/29 00:22:45;;;;;;;11.63;8.00;;;;;;;6.39;89.65;101072.69;5036095;28;20501;-75
2022/11/29 00:25:11;;;;;;;10.38;7.00;;;;;;;6.27;89.63;101038.66;5036428;28;20029;-75
2022/11/29 00:27:36;;;;;;;11.00;7.65;;;;;;;6.13;89.31;101003.88;5035962;28;20026;-76
2022/11/29 00:30:02;;;;;;;13.88;6.60;;;;;;;6.52;89.32;101064.81;5035850;28;20021;-75
2022/11/29 00:32:28;;;;;;;10.05;6.82;;;;;;;6.53;89.18;101067.44;5036228;28;20033;-75
2022/11/29 00:34:53;;;;;;;10.27;6.22;;;;;;;6.53;89.39;101054.06;5036208;28;20163;-75
2022/11/29 00:37:19;;;;;;;14.73;6.75;;;;;;;6.61;89.32;101066.09;5036069;28;20029;-74
2022/11/29 00:39:44;;;;;;;9.40;5.72;;;;;;;6.65;89.68;101051.63;5035606;28;20029;-75
2022/11/29 00:42:09;;;;;;;8.52;6.25;;;;;;;6.68;89.57;101062.13;5035819;28;20116;-76
2022/11/29 00:44:35;;;;;;;7.55;5.85;;;;;;;6.58;89.39;101033.28;5035937;28;20018;-75
2022/11/29 00:47:00;;;;;;;7.78;5.22;;;;;;;6.76;89.67;101070.59;5038502;28;20411;-76
2022/11/29 00:49:26;;;;;;;10.63;5.38;;;;;;;6.62;89.50;101025.94;5035709;28;20560;-75
2022/11/29 00:51:51;;;;;;;7.72;5.15;;;;;;;6.76;89.78;101054.53;5035393;28;20018;-74
2022/11/29 00:54:17;;;;;;;8.35;5.50;;;;;;;6.75;90.42;101059.03;5037846;28;20028;-74
2022/11/29 00:56:42;;;;;;;9.27;5.97;;;;;;;6.72;90.46;101059.19;5040333;28;20043;-75
2022/11/29 00:59:08;;;;;;;10.32;5.18;;;;;;;6.64;90.98;101033.84;5039689;28;20052;-74
2022/11/29 01:01:33;;;;;;;8.75;6.03;;;;;;;6.68;90.80;101064.81;5037511;28;20038;-75
2022/11/29 01:04:00;;;;;;;10.65;6.55;;;;;;;6.66;91.52;101048.00;5039592;28;20033;-75
2022/11/29 01:06:25;;;;;;;8.02;5.63;;;;;;;6.55;91.39;101030.78;5032053;28;20075;-76
2022/11/29 01:08:51;;;;;;;8.50;5.80;;;;;;;6.67;91.64;101033.66;5032988;28;20464;-77
2022/11/29 01:11:24;;;;;;;8.68;5.82;;;;;;;6.53;91.70;101027.34;5033362;28;20026;-76
2022/11/29 01:13:56;;;;;;;6.78;5.25;;;;;;;6.76;91.84;101051.88;5032639;28;20033;-74
2022/11/29 01:16:22;;;;;;;7.55;6.05;;;;;;;6.60;92.14;100989.56;5032165;28;20664;-75
2022/11/29 01:18:48;;;;;;;9.35;6.30;;;;;;;6.78;91.91;101041.94;5032065;28;20124;-75
2022/11/29 01:21:16;;;;;;;10.32;5.53;;;;;;;6.79;92.15;101027.63;5032198;28;20072;-75
2022/11/29 01:23:42;;;;;;;6.63;5.07;;;;;;;6.75;92.13;101042.97;5031923;28;20029;-75
2022/11/29 01:26:11;;;;;;;9.18;5.95;;;;;;;6.83;92.42;101037.16;5032189;28;20033;-75
2022/11/29 01:28:38;;;;;;;9.38;6.05;;;;;;;6.80;92.05;101018.63;5030775;28;20511;-76
2022/11/29 01:31:12;;;;;;;8.80;6.07;;;;;;;6.84;91.50;101015.72;5032213;28;20096;-74
2022/11/29 01:33:38;;;;;;;11.20;6.55;;;;;;;6.83;91.03;101013.97;5034030;28;20061;-75
2022/11/29 01:36:05;;;;;;;11.13;6.28;;;;;;;6.82;90.65;101030.97;5032833;28;20047;-74
2022/11/29 01:38:31;;;;;;;8.32;6.15;;;;;;;6.83;90.94;101029.16;5032534;28;20033;-75
2022/11/29 01:40:57;;;;;;;9.20;6.15;;;;;;;6.82;90.71;101028.28;5032539;28;20029;-75
2022/11/29 01:43:23;;;;;;;8.43;6.35;;;;;;;6.81;90.25;101033.72;5032867;28;20048;-73
2022/11/29 01:45:49;;;;;;;8.45;6.13;;;;;;;6.75;90.24;101020.72;5031674;28;20480;-74
2022/11/29 01:48:15;;;;;;;9.10;6.95;;;;;;;6.81;90.35;101036.41;5032069;28;20055;-74
2022/11/29 01:50:41;;;;;;;8.57;6.53;;;;;;;6.75;90.78;101018.06;5031828;28;20084;-75
2022/11/29 01:53:09;;;;;;;9.07;6.47;;;;;;;6.75;91.08;101023.41;5031520;28;20315;-75
2022/11/29 01:55:38;;;;;;;8.30;6.35;;;;;;;6.78;90.89;101015.22;5031304;28;20091;-75
2022/11/29 01:58:05;;;;;;;15.30;7.07;;;;;;;6.79;91.31;101016.94;5031629;28;20033;-74
2022/11/29 02:00:31;;;;;;;7.40;6.40;;;;;;;6.80;91.00;100997.25;5031302;28;20041;-74
2022/11/29 02:03:06;;;;;;;11.88;7.40;;;;;;;6.90;90.59;101004.66;5031567;28;20079;-75
2022/11/29 02:05:32;;;;;;;10.05;7.38;;;;;;;6.82;90.47;101016.75;5030686;28;20041;-75
2022/11/29 02:07:59;;;;;;;9.88;7.55;;;;;;;6.77;90.50;101002.78;5038025;28;20022;-75
2022/11/29 02:10:39;;;;;;;15.10;8.55;;;;;;;6.75;90.45;100999.34;5040576;28;20036;-75
2022/11/29 02:13:25;;;;;;;13.80;7.38;;;;;;;6.71;90.50;101003.16;5032362;28;20037;-75
2022/11/29 02:16:03;;;;;;;10.02;7.53;;;;;;;6.64;90.78;101017.81;5031527;28;20037;-75
2022/11/29 02:19:08;;;;;;;10.90;7.90;;;;;;;6.62;91.39;100999.22;5031293;28;20018;-74
2022/11/29 02:22:00;;;;;;;10.05;7.25;;;;;;;6.62;91.40;101017.06;5031116;28;20033;-74
2022/11/29 02:25:07;;;;;;;9.40;7.32;;;;;;;6.63;91.26;100997.41;5030627;28;20049;-74
2022/11/29 02:28:09;;;;;;;13.10;8.43;;;;;;;6.67;90.65;101017.63;5030654;28;20029;-76
2022/11/29 02:30:37;;;;;;;10.00;6.70;;;;;;;6.63;90.91;101002.75;5030403;28;20031;-75
2022/11/29 02:33:21;;;;;;;10.00;6.50;;;;;;;6.47;90.69;101003.66;5030582;28;20095;-74
2022/11/29 02:36:16;;;;;;;7.95;5.70;;;;;;;6.61;91.11;101024.22;5030493;28;20022;-74
2022/11/29 02:39:20;;;;;;;13.23;7.60;;;;;;;6.60;90.94;101032.34;5028220;28;20116;-76
2022/11/29 02:42:02;;;;;;;9.30;6.93;;;;;;;6.62;90.59;101019.72;5027940;28;20064;-74
2022/11/29 02:44:55;;;;;;;9.20;6.25;;;;;;;6.60;91.04;101018.97;5027894;28;20450;-75
2022/11/29 02:47:42;;;;;;;9.85;6.28;;;;;;;6.61;90.99;101020.66;5027746;28;20578;-75
2022/11/29 02:50:43;;;;;;;9.20;6.35;;;;;;;6.67;90.94;101022.97;5027373;28;20049;-76
2022/11/29 02:53:46;;;;;;;6.63;5.35;;;;;;;6.65;90.24;101023.09;4968691;28;20149;-74
2022/11/29 02:56:30;;;;;;;;;;;;;;;6.62;89.92;101027.75;4949814;29;20047;-73
2022/11/29 02:59:22;;;;;;;7.80;4.97;;;;;;;6.53;90.40;101016.66;4950440;29;19926;-75
2022/11/29 03:02:05;;;;;;;8.45;5.60;;;;;;;6.62;90.29;101028.59;4950307;29;20458;-75
2022/11/29 03:04:48;;;;;;;8.32;5.55;;;;;;;6.64;90.14;101033.84;4951441;29;20059;-76
2022/11/29 03:07:31;;;;;;;8.43;5.75;;;;;;;6.63;89.56;101024.13;4954443;29;20049;-75
2022/11/29 03:10:16;;;;;;;9.63;6.18;;;;;;;6.55;90.24;101025.44;4952176;29;20408;-75
2022/11/29 03:12:48;;;;;;;8.50;5.68;;;;;;;6.66;89.80;101021.28;4951983;29;20499;-76
2022/11/29 03:15:52;;;;;;;8.23;6.10;;;;;;;6.63;89.70;101026.81;4958382;29;20185;-74
2022/11/29 03:18:36;;;;;;;8.52;6.20;;;;;;;6.35;89.41;100974.97;4958141;29;20178;-75
2022/11/29 03:21:04;;;;;;;10.48;7.05;;;;;;;6.64;89.42;101017.81;4949185;29;20110;-74
2022/11/29 03:23:44;;;;;;;8.77;6.13;;;;;;;6.64;89.51;101007.13;4949049;29;20069;-74
2022/11/29 03:26:18;;;;;;;9.85;6.78;;;;;;;6.65;89.79;101003.50;4949247;29;20042;-76
2022/11/29 03:29:00;;;;;;;7.65;5.88;;;;;;;6.64;90.04;101012.47;4948919;28;20039;-77
2022/11/29 03:31:33;;;;;;;8.77;6.23;;;;;;;6.63;89.51;100990.25;4949250;29;20039;-77
2022/11/29 03:34:16;;;;;;;8.45;6.22;;;;;;;6.77;89.71;101005.44;5002543;28;20283;-76
2022/11/29 03:37:05;;;;;;;9.93;6.40;;;;;;;6.78;89.72;101007.19;5007475;28;20038;-75
2022/11/29 03:39:50;;;;;;;10.27;6.93;;;;;;;6.77;89.47;101013.47;5008066;28;20080;-76
2022/11/29 03:42:42;;;;;;;9.13;6.88;;;;;;;6.75;89.22;100999.34;5007902;28;20030;-75
2022/11/29 03:45:14;;;;;;;11.50;7.43;;;;;;;6.78;89.34;101016.06;5008400;28;20113;-77
2022/11/29 03:47:58;;;;;;;9.95;7.22;;;;;;;6.74;89.20;101017.19;5007828;28;20038;-75
2022/11/29 03:50:47;;;;;;;10.25;6.95;;;;;;;6.57;89.26;100975.41;5008306;28;20065;-76
2022/11/29 03:53:49;;;;;;;9.00;6.78;;;;;;;6.78;88.95;101013.41;5007167;28;20034;-76
2022/11/29 03:56:25;;;;;;;9.98;7.00;;;;;;;6.64;88.84;100985.75;5026692;28;20087;-78
2022/11/29 03:59:03;;;;;;;10.95;7.85;;;;;;;6.81;89.10;101012.34;5030287;28;20112;-76
2022/11/29 04:01:53;;;;;;;11.50;7.60;;;;;;;6.83;89.03;101029.16;5030055;28;20037;-75
2022/11/29 04:04:47;;;;;;;12.40;7.63;;;;;;;6.86;88.69;101031.63;5030059;28;20057;-78
2022/11/29 04:07:39;;;;;;;12.75;6.72;;;;;;;6.79;88.23;101043.66;5010528;28;20128;-75
2022/11/29 04:10:47;;;;;;;11.40;7.93;;;;;;;6.79;88.81;101041.00;5026714;28;20080;-74
2022/11/29 04:13:55;;;;;;;12.52;8.77;;;;;;;6.76;88.96;101043.84;5026838;28;20112;-75
2022/11/29 04:16:38;;;;;;;16.67;9.93;;;;;;;6.79;88.77;101049.84;5026779;28;20040;-74
2022/11/29 04:19:28;;;;;;;12.75;9.20;;;;;;;6.79;88.73;101051.69;5026617;28;20096;-76
2022/11/29 04:22:07;;;;;;;13.80;9.63;;;;;;;6.76;89.06;101049.19;5033251;28;20048;-75
2022/11/29 04:24:42;;;;;;;13.90;8.10;;;;;;;6.79;89.00;101039.16;5032540;28;20045;-74
2022/11/29 04:27:19;;;;;;;14.75;8.80;;;;;;;6.84;89.01;101036.22;5029197;28;20543;-75
2022/11/29 04:29:48;;;;;;;11.50;7.68;;;;;;;6.93;88.81;101033.88;5026702;28;20064;-76
2022/11/29 04:32:19;;;;;;;11.85;7.65;;;;;;;6.72;88.34;100989.72;5026501;28;20046;-76
2022/11/29 04:35:09;;;;;;;11.88;8.43;;;;;;;6.99;88.83;101035.31;5026802;28;20033;-75
2022/11/29 04:37:59;;;;;;;11.10;8.18;;;;;;;7.03;88.06;101047.56;5009489;28;20570;-74
2022/11/29 04:40:37;;;;;;;12.73;8.88;;;;;;;7.10;88.27;101049.75;5027373;28;20181;-75
2022/11/29 04:43:14;;;;;;;12.15;8.73;;;;;;;7.15;87.96;101041.47;5030487;28;20034;-75
2022/11/29 04:46:25;;;;;;;14.75;9.48;;;;;;;7.15;88.03;101041.47;5032652;28;20033;-74
2022/11/29 04:49:17;;;;;;;16.23;9.63;;;;;;;7.12;87.39;101053.19;5029943;28;20544;-74
2022/11/29 04:51:45;;;;;;;;;;;;;;;7.19;87.20;101053.69;5030763;28;20051;-74
2022/11/29 04:54:28;;;;;;;13.55;8.70;;;;;;;7.11;87.80;101050.63;5030150;28;19905;-75
2022/11/29 04:56:58;;;;;;;;;;;;;;;7.13;87.84;101038.00;5030601;28;20029;-74
2022/11/29 04:59:32;;;;;;;14.10;8.60;;;;;;;7.08;88.06;101040.09;5029874;28;20004;-75
2022/11/29 05:02:26;;;;;;;13.75;9.23;;;;;;;7.11;88.02;101035.44;5029948;28;20026;-75
2022/11/29 05:04:59;;;;;;;17.50;10.15;;;;;;;7.11;87.92;101039.91;5029706;28;20113;-73
2022/11/29 05:07:46;;;;;;;13.98;9.48;;;;;;;7.15;87.79;101052.16;5029584;28;20568;-74
2022/11/29 05:10:34;;;;;;;18.55;9.90;;;;;;;7.00;87.81;101011.13;5029903;28;20029;-74
2022/11/29 05:13:31;;;;;;;14.27;9.02;;;;;;;7.12;88.30;101044.31;5029709;28;20516;-75
2022/11/29 05:16:24;;;;;;;16.98;9.52;;;;;;;7.04;88.17;101011.81;5029871;28;20033;-77
2022/11/29 05:19:10;;;;;;;14.38;9.18;;;;;;;7.17;87.94;101063.63;5029614;28;20041;-73
2022/11/29 05:22:02;;;;;;;13.40;9.00;;;;;;;7.08;88.12;101050.81;4996854;28;20485;-76
2022/11/29 05:24:30;;;;;;;12.27;7.93;;;;;;;7.22;87.70;101057.97;5029703;28;20033;-75
2022/11/29 05:27:22;;;;;;;16.65;9.05;;;;;;;7.09;87.87;101036.50;5033127;28;20034;-74
2022/11/29 05:30:01;;;;;;;13.35;8.90;;;;;;;7.23;87.65;101060.56;5040582;28;20048;-75
2022/11/29 05:32:41;;;;;;;16.20;9.25;;;;;;;7.24;87.87;101050.75;5036086;28;20100;-75
2022/11/29 05:35:32;;;;;;;15.65;9.27;;;;;;;7.26;87.62;101065.72;5032064;28;20033;-75
2022/11/29 05:38:26;;;;;;;16.75;9.60;;;;;;;7.27;87.33;101067.47;5032248;28;20013;-75
2022/11/29 05:41:29;;;;;;;13.07;9.35;;;;;;;7.29;87.52;101067.34;5032837;28;20025;-75
2022/11/29 05:44:12;;;;;;;14.00;9.32;;;;;;;7.12;87.77;101030.94;5030217;28;20044;-75
2022/11/29 05:46:56;;;;;;;13.57;9.45;;;;;;;7.34;87.41;101058.09;5029531;28;20064;-75
2022/11/29 05:49:36;;;;;;;31.92;16.58;;;;;;;7.39;86.82;101077.41;5029014;28;20108;-74
2022/11/29 05:52:29;;;;;;;13.50;9.75;;;;;;;7.37;87.09;101070.44;5029469;28;20025;-75
2022/11/29 05:55:10;;;;;;;17.33;8.75;;;;;;;7.40;87.20;101079.13;5030912;28;20056;-75
2022/11/29 05:58:00;;;;;;;13.30;8.43;;;;;;;7.44;86.79;101074.44;5029384;28;20125;-75
2022/11/29 06:00:33;;;;;;;16.35;9.25;;;;;;;7.20;86.62;101041.16;5028898;28;20045;-74
2022/11/29 06:03:05;;;;;;;13.10;8.52;;;;;;;7.44;87.11;101087.81;5028916;28;20029;-73
2022/11/29 06:05:39;;;;;;;12.25;8.98;;;;;;;7.47;87.00;101093.84;5028847;28;20133;-74
2022/11/29 06:08:05;;;;;;;14.80;9.00;;;;;;;7.50;87.42;101090.13;5028733;28;20029;-74
2022/11/29 06:10:35;;;;;;;19.77;10.68;;;;;;;7.53;87.06;101081.91;5028693;28;20551;-74
2022/11/29 06:13:28;;;;;;;13.38;8.30;;;;;;;7.49;86.72;101099.13;5028736;28;20041;-74
2022/11/29 06:16:32;;;;;;;13.00;7.45;;;;;;;7.50;87.21;101107.06;5029074;28;20034;-75
2022/11/29 06:19:26;;;;;;;11.90;8.90;;;;;;;7.33;86.98;101071.59;4969690;28;20166;-75
2022/11/29 06:21:58;;;;;;;15.95;8.32;;;;;;;7.46;87.61;101094.81;4989500;28;20042;-75
2022/11/29 06:24:31;;;;;;;;;;;;;;;7.51;87.59;101114.13;4989697;28;20070;-74
2022/11/29 06:27:15;;;;;;;12.02;8.10;;;;;;;7.50;87.32;101100.84;4989256;28;19980;-74
2022/11/29 06:29:43;;;;;;;11.80;7.18;;;;;;;7.53;87.39;101101.50;4989002;28;20046;-76
2022/11/29 06:32:27;;;;;;;9.88;7.38;;;;;;;7.58;87.90;101099.41;4989889;28;20404;-74
2022/11/29 06:35:03;;;;;;;10.20;7.03;;;;;;;7.62;87.87;101100.94;4992946;28;20092;-75
2022/11/29 06:37:33;;;;;;;10.45;7.57;;;;;;;7.69;87.77;101104.09;4993202;28;20030;-74
2022/11/29 06:39:59;;;;;;;10.93;8.52;;;;;;;7.56;87.56;101090.63;4989114;28;20030;-74
2022/11/29 06:42:24;;;;;;;11.68;8.25;;;;;;;7.65;87.33;101116.81;4989858;28;20044;-75
2022/11/29 06:44:50;;;;;;;17.15;7.85;;;;;;;7.51;87.79;101071.31;4989329;28;20441;-76
2022/11/29 06:47:36;;;;;;;13.40;8.20;;;;;;;7.72;87.63;101105.72;4989267;28;20061;-74
2022/11/29 06:50:12;;;;;;;18.10;9.98;;;;;;;7.74;87.35;101118.06;4988374;28;20558;-75
2022/11/29 06:52:48;;;;;;;12.73;7.38;;;;;;;7.75;87.11;101110.91;4988896;28;20093;-75
2022/11/29 06:55:17;;;;;;;8.82;6.43;;;;;;;7.74;86.92;101103.81;5003318;28;20041;-75
2022/11/29 06:58:03;;;;;;;16.02;7.25;;;;;;;7.74;86.76;101106.50;5030235;28;20125;-74
2022/11/29 07:01:13;;;;;;;10.40;7.30;;;;;;;7.78;87.32;101122.28;5027654;28;20532;-74
2022/11/29 07:04:05;;;;;;;19.08;7.30;;;;;;;7.36;86.89;101045.50;4967816;28;20035;-76
2022/11/29 07:06:33;;;;;;;8.63;6.40;;;;;;;7.75;87.14;101109.09;4968615;28;20050;-75
2022/11/29 07:09:07;;;;;;;8.63;6.40;;;;;;;7.82;86.85;101114.94;4968597;28;20043;-74
2022/11/29 07:11:33;;;;;;;11.40;7.38;;;;;;;7.87;86.42;101126.19;4968937;28;20117;-75
2022/11/29 07:13:58;;;;;;;9.32;7.22;;;;;;;7.76;86.63;101107.28;4968778;28;20121;-74
2022/11/29 07:16:38;;;;;;;9.50;6.43;;;;;;;7.94;86.78;101111.47;4968938;28;20035;-75
2022/11/29 07:19:18;;;;;;;11.07;6.75;;;;;;;7.98;86.57;101126.41;4972508;28;20043;-75
2022/11/29 07:21:58;;;;;;;9.82;5.90;;;;;;;8.02;86.47;101114.53;4969047;28;20047;-75
2022/11/29 07:25:01;;;;;;;9.95;6.72;;;;;;;8.05;87.09;101111.66;4968390;28;20038;-75
2022/11/29 07:28:03;;;;;;;7.43;5.63;;;;;;;8.09;86.89;101116.75;4949194;29;20118;-74
2022/11/29 07:30:31;;;;;;;9.48;6.63;;;;;;;8.10;86.69;101114.91;4949057;29;20101;-74
2022/11/29 07:33:17;;;;;;;6.95;5.43;;;;;;;8.11;87.13;101113.94;4949178;29;20051;-74
2022/11/29 07:36:13;;;;;;;7.43;5.75;;;;;;;8.14;87.51;101108.38;4949061;29;20205;-75
2022/11/29 07:39:15;;;;;;;8.73;6.35;;;;;;;8.16;86.48;101106.50;4915889;29;20059;-75
2022/11/29 07:41:49;;;;;;;12.43;6.60;;;;;;;8.12;86.95;101115.69;4954239;29;20110;-75
2022/11/29 07:44:37;;;;;;;32.65;16.55;;;;;;;8.15;87.65;101104.75;4952781;29;20114;-75
2022/11/29 07:47:03;;;;;;;11.07;7.32;;;;;;;8.18;87.68;101120.66;4949250;29;20086;-75
2022/11/29 07:49:28;;;;;;;9.52;7.30;;;;;;;8.22;87.67;101098.06;4948821;29;20055;-75
2022/11/29 07:51:54;;;;;;;15.93;9.80;;;;;;;8.27;87.57;101111.16;4949150;29;20113;-75
2022/11/29 07:54:20;;;;;;;12.95;6.88;;;;;;;8.31;87.17;101096.63;4948613;29;20444;-75
2022/11/29 07:56:46;;;;;;;12.68;6.00;;;;;;;8.31;86.48;101110.03;4948346;29;20922;-75
2022/11/29 07:59:13;;;;;;;8.95;6.53;;;;;;;8.20;86.69;101092.78;4948982;29;20118;-76
2022/11/29 08:01:39;;;;;;;10.57;7.07;;;;;;;8.44;86.37;101127.88;4983804;28;20135;-75
2022/11/29 08:04:05;;;;;;;9.07;5.70;;;;;;;8.37;86.07;101120.38;5007232;28;20084;-77
2022/11/29 08:06:31;;;;;;;10.00;6.13;;;;;;;8.36;85.74;101118.63;5007371;28;20145;-75
2022/11/29 08:08:57;;;;;;;9.30;6.50;;;;;;;8.40;85.80;101121.03;5007044;28;20613;-75
2022/11/29 08:11:23;;;;;;;13.68;6.78;;;;;;;8.21;85.58;101088.28;5006724;28;20037;-75
2022/11/29 08:13:48;;;;;;;12.38;6.63;;;;;;;8.43;85.27;101118.16;5006958;28;20159;-74
2022/11/29 08:16:18;;;;;;;10.70;6.10;;;;;;;8.46;85.47;101120.63;5011024;28;20050;-75
2022/11/29 08:18:44;;;;;;;10.70;7.68;;;;;;;8.52;85.97;101124.72;5010712;28;20079;-75
2022/11/29 08:21:09;;;;;;;8.07;5.75;;;;;;;8.64;85.80;101130.16;5010877;28;20461;-76
2022/11/29 08:23:35;;;;;;;9.40;6.00;;;;;;;8.68;85.05;101137.03;5011443;28;20565;-74
2022/11/29 08:26:01;;;;;;;9.48;5.93;;;;;;;8.65;85.02;101134.53;5014288;28;20038;-75
2022/11/29 08:28:27;;;;;;;9.13;5.95;;;;;;;8.74;85.24;101131.25;5031322;28;20037;-74
2022/11/29 08:31:04;;;;;;;8.68;6.15;;;;;;;8.74;84.54;101136.63;5033189;28;20570;-74
2022/11/29 08:33:30;;;;;;;10.48;5.63;;;;;;;8.69;84.11;101128.03;5034465;28;20096;-75
2022/11/29 08:36:03;;;;;;;9.18;5.40;;;;;;;8.76;84.29;101128.50;5033608;28;20037;-76
2022/11/29 08:38:29;;;;;;;7.50;5.10;;;;;;;8.77;83.82;101121.31;5032985;28;20400;-76
2022/11/29 08:41:00;;;;;;;6.90;4.90;;;;;;;8.81;84.00;101125.50;5032893;28;20041;-75
2022/11/29 08:43:25;;;;;;;8.63;5.43;;;;;;;8.65;83.78;101097.00;5033671;28;20033;-74
2022/11/29 08:45:51;;;;;;;8.93;5.40;;;;;;;8.89;83.45;101128.53;5037990;28;20033;-74
2022/11/29 08:48:16;;;;;;;8.15;5.10;;;;;;;8.91;84.04;101121.25;5034984;28;20025;-76
2022/11/29 08:50:42;;;;;;;15.23;8.95;;;;;;;8.96;84.04;101117.28;5035104;28;20049;-74
2022/11/29 08:55:51;;;;;;;16.67;9.48;;;;;;;8.95;83.14;101106.66;5033385;28;20036;-76
2022/11/29 08:58:16;;;;;;;8.10;5.60;;;;;;;8.90;83.38;101106.13;5032547;28;20623;-74
2022/11/29 09:00:45;;;;;;;8.15;5.45;;;;;;;8.82;83.37;101081.63;5032374;28;20029;-74
2022/11/29 09:05:56;;;;;;;7.28;5.13;;;;;;;8.94;84.00;101096.91;5032337;28;20143;-75
2022/11/29 09:08:21;;;;;;;6.72;4.60;;;;;;;8.80;83.87;101064.78;5030989;28;20025;-75
2022/11/29 09:10:48;;;;;;;9.50;5.03;;;;;;;9.01;84.10;101106.25;5032636;28;20025;-75
2022/11/29 09:13:13;;;;;;;11.77;6.03;;;;;;;9.12;83.96;101098.34;5030862;28;20022;-74
2022/11/29 09:15:42;;;;;;;9.32;5.57;;;;;;;9.16;83.66;101099.84;5032307;28;20087;-75
2022/11/29 09:18:07;;;;;;;6.60;5.05;;;;;;;9.05;84.08;101078.28;5032159;28;20030;-75
2022/11/29 09:20:33;;;;;;;11.38;5.18;;;;;;;9.10;83.67;101084.16;5032002;28;20033;-75
2022/11/29 09:22:59;;;;;;;10.80;6.72;;;;;;;9.23;83.63;101091.25;5032126;28;20021;-74
2022/11/29 09:25:26;;;;;;;15.10;7.45;;;;;;;9.27;83.99;101081.19;5031283;28;20030;-74
2022/11/29 09:27:51;;;;;;;7.50;5.10;;;;;;;9.30;83.18;101079.16;5031619;28;20022;-75
2022/11/29 09:30:17;;;;;;;6.60;4.25;;;;;;;9.20;83.40;101071.84;5031691;28;20048;-75
2022/11/29 09:32:44;;;;;;;8.75;5.55;;;;;;;9.32;83.69;101070.16;5031921;28;20029;-74
2022/11/29 09:35:10;;;;;;;8.52;4.93;;;;;;;9.31;83.39;101066.59;5031704;28;20041;-75
2022/11/29 09:37:36;;;;;;;8.60;5.45;;;;;;;9.29;83.21;101063.16;5031756;28;20032;-76
2022/11/29 09:40:03;;;;;;;9.30;4.97;;;;;;;9.35;83.59;101053.81;5031789;28;20488;-74
2022/11/29 09:42:59;;;;;;;6.53;4.80;;;;;;;9.27;83.93;101024.81;5031894;28;20395;-76
2022/11/29 09:45:35;;;;;;;8.75;4.45;;;;;;;9.49;84.06;101054.56;5031854;28;20784;-76
2022/11/29 09:48:19;;;;;;;8.25;4.60;;;;;;;9.32;84.05;101035.25;5031830;28;20041;-76
2022/11/29 09:51:26;;;;;;;5.97;3.83;;;;;;;9.48;84.27;101052.84;5032914;28;20049;-74
2022/11/29 09:54:10;;;;;;;5.28;3.58;;;;;;;9.49;85.11;101051.88;5032195;28;20108;-74
2022/11/29 09:56:45;;;;;;;4.80;3.40;;;;;;;9.46;85.48;101054.78;5031605;28;20069;-74
2022/11/29 09:59:32;;;;;;;8.00;5.38;;;;;;;9.46;85.36;101060.16;5028730;28;20050;-75
2022/11/29 10:02:12;;;;;;;6.75;3.75;;;;;;;9.47;85.59;101055.66;5028008;28;20509;-74
2022/11/29 10:04:42;;;;;;;6.40;4.63;;;;;;;9.45;86.28;101053.06;5028600;28;20144;-75
2022/11/29 10:07:20;;;;;;;16.45;7.28;;;;;;;9.49;85.68;101053.72;5028686;28;20033;-74
2022/11/29 10:10:01;;;;;;;12.00;6.43;;;;;;;9.54;85.77;101057.78;5030025;28;20115;-75
2022/11/29 10:12:42;;;;;;;5.57;3.60;;;;;;;9.58;85.66;101063.81;5029158;28;20382;-75
2022/11/29 10:15:30;;;;;;;5.85;3.63;;;;;;;9.59;85.88;101054.78;5028496;28;20039;-75
2022/11/29 10:18:03;;;;;;;6.85;4.22;;;;;;;9.66;85.59;101056.09;5028453;28;20123;-75
2022/11/29 10:20:38;;;;;;;8.90;5.03;;;;;;;9.69;84.87;101055.88;5027698;28;20116;-74
2022/11/29 10:23:12;;;;;;;10.60;5.53;;;;;;;9.71;84.13;101060.16;5027942;28;20033;-74
2022/11/29 10:25:46;;;;;;;9.00;5.18;;;;;;;9.69;83.89;101055.88;5028207;28;20040;-75
2022/11/29 10:28:15;;;;;;;28.00;11.00;;;;;;;9.52;84.30;101021.28;5011686;28;20045;-75
2022/11/29 10:30:42;;;;;;;6.28;4.28;;;;;;;9.79;83.95;101052.41;5028995;28;20129;-75
2022/11/29 10:33:30;;;;;;;6.47;3.45;;;;;;;9.83;83.60;101063.78;5030587;28;20029;-74
2022/11/29 10:35:58;;;;;;;6.53;4.25;;;;;;;9.73;83.60;101051.97;5030661;28;20489;-75
2022/11/29 10:38:24;;;;;;;5.65;3.95;;;;;;;9.76;83.61;101047.25;5030816;28;20515;-74
2022/11/29 10:40:56;;;;;;;13.25;4.03;;;;;;;9.62;83.86;101031.28;5030566;28;20049;-75
2022/11/29 10:43:24;;;;;;;8.50;4.45;;;;;;;9.83;83.10;101059.28;5030696;28;20029;-75
2022/11/29 10:45:54;;;;;;;7.78;4.20;;;;;;;9.75;83.47;101061.63;5030499;28;20370;-75
2022/11/29 10:48:22;;;;;;;9.27;5.60;;;;;;;9.83;83.15;101063.78;5031055;28;20034;-74
2022/11/29 10:50:50;;;;;;;6.75;4.65;;;;;;;9.80;83.13;101064.88;5030692;28;20049;-74
2022/11/29 10:53:17;;;;;;;8.95;4.38;;;;;;;9.79;83.37;101057.78;5045273;28;20041;-75
2022/11/29 10:55:52;;;;;;;9.57;5.43;;;;;;;9.82;84.13;101059.38;5030862;28;20029;-75
2022/11/29 10:58:19;;;;;;;14.38;7.03;;;;;;;9.87;84.22;101059.06;5034007;28;20036;-74
2022/11/29 11:00:50;;;;;;;18.17;11.32;;;;;;;9.91;84.23;101063.25;5034860;28;20036;-75
2022/11/29 11:03:21;;;;;;;11.73;7.43;;;;;;;9.95;84.51;101056.69;5032223;28;20032;-77
2022/11/29 11:06:04;;;;;;;8.82;5.35;;;;;;;10.02;85.13;101068.72;5030377;28;20086;-74
2022/11/29 11:08:30;;;;;;;;;;;;;;;10.12;84.89;101069.78;5031069;28;20034;-74
2022/11/29 11:10:56;;;;;;;11.00;4.82;;;;;;;10.08;84.94;101060.22;5029750;28;19921;-75
2022/11/29 11:13:24;;;;;;;10.18;5.20;;;;;;;10.19;84.86;101054.94;5030494;28;20033;-74
2022/11/29 11:15:56;;;;;;;20.23;13.10;;;;;;;10.21;84.74;101061.91;5029888;28;20025;-74
2022/11/29 11:18:27;;;;;;;26.05;15.50;;;;;;;10.25;84.33;101059.84;5029824;28;20033;-74
2022/11/29 11:20:58;;;;;;;8.55;4.95;;;;;;;10.33;83.92;101054.78;5028479;28;20095;-75
2022/11/29 11:23:29;;;;;;;7.78;4.25;;;;;;;10.37;83.89;101053.59;5029409;28;20109;-74
2022/11/29 11:26:06;;;;;;;7.30;4.43;;;;;;;10.33;83.88;101052.97;5029798;28;20029;-74
2022/11/29 11:28:50;;;;;;;14.80;4.18;;;;;;;10.26;84.12;101050.84;5029503;28;20100;-75
2022/11/29 11:31:26;;;;;;;10.88;5.38;;;;;;;9.84;84.42;100950.88;5029266;28;20112;-75
2022/11/29 11:33:52;;;;;;;10.27;5.32;;;;;;;10.24;84.71;101044.72;5029432;28;20037;-74
2022/11/29 11:36:20;;;;;;;9.43;4.68;;;;;;;10.26;85.16;101040.94;5031719;28;20026;-74
2022/11/29 11:38:55;;;;;;;16.83;4.15;;;;;;;10.18;85.35;101011.06;5029552;28;20033;-74
2022/11/29 11:44:36;;;;;;;12.27;5.13;;;;;;;10.33;85.78;101038.66;5026693;28;20138;-74
2022/11/29 11:47:05;;;;;;;10.32;4.88;;;;;;;10.31;85.42;101032.53;5026622;28;20056;-74
2022/11/29 11:49:54;;;;;;;7.97;5.07;;;;;;;10.31;85.17;101016.41;5026102;28;20562;-75
2022/11/29 11:52:26;;;;;;;8.75;4.97;;;;;;;10.40;85.32;101056.03;5026903;28;20041;-75
2022/11/29 11:54:58;;;;;;;16.08;5.07;;;;;;;10.21;85.22;101016.22;5026581;28;20076;-74
2022/11/29 11:57:25;;;;;;;12.90;4.90;;;;;;;10.43;85.20;101044.22;5010481;28;20052;-74
2022/11/29 11:59:52;;;;;;;13.30;6.80;;;;;;;10.42;85.45;101039.81;5010030;28;20123;-75
2022/11/29 12:02:25;;;;;;;6.43;4.30;;;;;;;10.55;85.09;101062.97;5026837;28;20120;-74
2022/11/29 12:04:53;;;;;;;10.60;6.15;;;;;;;10.55;84.94;101065.66;5029673;28;20095;-75
2022/11/29 12:07:33;;;;;;;12.38;6.05;;;;;;;10.48;84.64;101053.66;5029523;28;20049;-75
2022/11/29 12:10:05;;;;;;;8.27;5.97;;;;;;;10.35;85.05;101042.09;5027178;28;20033;-74
2022/11/29 12:12:37;;;;;;;9.20;5.30;;;;;;;10.58;85.35;101072.66;5010160;28;20590;-74
2022/11/29 12:15:13;;;;;;;10.48;6.22;;;;;;;10.58;85.67;101073.50;5026528;28;20038;-75
2022/11/29 12:17:54;;;;;;;17.65;8.95;;;;;;;10.40;86.82;101034.53;5026614;28;20026;-75